sensor_id;sensor_type;location;lat;lon;timestamp;P1;durP1;ratioP1;P2;durP2;ratioP2
18505;SDS011;9382;53.242;10.438;2023-02-28T00:00:00;23.73;;;12.43;;
18505;SDS011;9382;53.242;10.438;2023-02-28T00:02:33;20.27;;;11.33;;
18505;SDS011;9382;53.242;10.438;2023-02-28T00:05:00;25.50;;;11.97;;
18505;SDS011;9382;53.242;10.438;2023-02-28T00:07:28;22.93;;;12.00;;
18505;SDS011;9382;53.242;10.438;2023-02-28T00:09:55;25.37;;;11.80;;
18505;SDS011;9382;53.242;10.438;2023-02-28T00:12:22;23.43;;;11.10;;
18505;SDS011;9382;53.242;10.438;2023-02-28T00:14:49;22.43;;;10.27;;
18505;SDS011;9382;53.242;10.438;2023-02-28T00:17:17;20.67;;;10.63;;
18505;SDS011;9382;53.242;10.438;2023-02-28T00:19:46;20.87;;;10.60;;
18505;SDS011;9382;53.242;10.438;2023-02-28T00:22:14;20.07;;;10.87;;
18505;SDS011;9382;53.242;10.438;2023-02-28T00:24:41;22.77;;;10.70;;
18505;SDS011;9382;53.242;10.438;2023-02-28T00:27:08;19.00;;;9.87;;
18505;SDS011;9382;53.242;10.438;2023-02-28T00:29:34;16.20;;;8.97;;
18505;SDS011;9382;53.242;10.438;2023-02-28T00:32:02;14.90;;;8.43;;
18505;SDS011;9382;53.242;10.438;2023-02-28T00:34:30;15.53;;;7.90;;
18505;SDS011;9382;53.242;10.438;2023-02-28T00:37:03;15.77;;;8.20;;
18505;SDS011;9382;53.242;10.438;2023-02-28T00:39:33;14.90;;;8.07;;
18505;SDS011;9382;53.242;10.438;2023-02-28T00:42:00;14.40;;;7.97;;
18505;SDS011;9382;53.242;10.438;2023-02-28T00:44:27;15.33;;;8.23;;
18505;SDS011;9382;53.242;10.438;2023-02-28T00:46:54;11.97;;;7.47;;
18505;SDS011;9382;53.242;10.438;2023-02-28T00:49:21;13.33;;;7.07;;
18505;SDS011;9382;53.242;10.438;2023-02-28T00:51:50;12.87;;;6.90;;
18505;SDS011;9382;53.242;10.438;2023-02-28T00:54:17;12.00;;;6.70;;
18505;SDS011;9382;53.242;10.438;2023-02-28T00:56:44;14.13;;;6.93;;
18505;SDS011;9382;53.242;10.438;2023-02-28T00:59:11;13.97;;;6.83;;
18505;SDS011;9382;53.242;10.438;2023-02-28T01:01:38;14.63;;;7.17;;
18505;SDS011;9382;53.242;10.438;2023-02-28T01:04:05;11.73;;;6.70;;
18505;SDS011;9382;53.242;10.438;2023-02-28T01:06:32;12.30;;;6.73;;
18505;SDS011;9382;53.242;10.438;2023-02-28T01:09:01;14.57;;;7.77;;
18505;SDS011;9382;53.242;10.438;2023-02-28T01:11:28;10.67;;;6.90;;
18505;SDS011;9382;53.242;10.438;2023-02-28T01:13:55;11.63;;;6.43;;
18505;SDS011;9382;53.242;10.438;2023-02-28T01:16:22;12.53;;;6.40;;
18505;SDS011;9382;53.242;10.438;2023-02-28T01:18:48;9.10;;;5.73;;
18505;SDS011;9382;53.242;10.438;2023-02-28T01:21:16;8.80;;;5.77;;
18505;SDS011;9382;53.242;10.438;2023-02-28T01:23:45;11.03;;;5.53;;
18505;SDS011;9382;53.242;10.438;2023-02-28T01:26:14;10.77;;;5.80;;
18505;SDS011;9382;53.242;10.438;2023-02-28T01:28:43;9.20;;;5.40;;
18505;SDS011;9382;53.242;10.438;2023-02-28T01:31:09;7.67;;;5.47;;
18505;SDS011;9382;53.242;10.438;2023-02-28T01:33:37;11.67;;;5.43;;
18505;SDS011;9382;53.242;10.438;2023-02-28T01:36:05;10.83;;;5.73;;
18505;SDS011;9382;53.242;10.438;2023-02-28T01:38:34;8.70;;;5.77;;
18505;SDS011;9382;53.242;10.438;2023-02-28T01:41:01;7.43;;;5.20;;
18505;SDS011;9382;53.242;10.438;2023-02-28T01:43:31;10.37;;;5.57;;
18505;SDS011;9382;53.242;10.438;2023-02-28T01:46:17;8.07;;;5.40;;
18505;SDS011;9382;53.242;10.438;2023-02-28T01:48:45;9.43;;;5.20;;
18505;SDS011;9382;53.242;10.438;2023-02-28T01:51:16;7.17;;;4.40;;
18505;SDS011;9382;53.242;10.438;2023-02-28T01:53:48;7.33;;;4.90;;
18505;SDS011;9382;53.242;10.438;2023-02-28T01:56:19;7.83;;;5.20;;
18505;SDS011;9382;53.242;10.438;2023-02-28T01:58:51;9.40;;;5.43;;
18505;SDS011;9382;53.242;10.438;2023-02-28T02:01:19;9.03;;;5.30;;
18505;SDS011;9382;53.242;10.438;2023-02-28T02:03:47;7.93;;;4.87;;
18505;SDS011;9382;53.242;10.438;2023-02-28T02:06:20;7.73;;;5.17;;
18505;SDS011;9382;53.242;10.438;2023-02-28T02:08:47;8.10;;;5.30;;
18505;SDS011;9382;53.242;10.438;2023-02-28T02:11:14;13.33;;;5.23;;
18505;SDS011;9382;53.242;10.438;2023-02-28T02:13:53;9.27;;;5.00;;
18505;SDS011;9382;53.242;10.438;2023-02-28T02:16:44;7.77;;;4.90;;
18505;SDS011;9382;53.242;10.438;2023-02-28T02:19:36;8.23;;;4.83;;
18505;SDS011;9382;53.242;10.438;2023-02-28T02:22:50;8.87;;;5.20;;
18505;SDS011;9382;53.242;10.438;2023-02-28T02:25:49;7.00;;;5.30;;
18505;SDS011;9382;53.242;10.438;2023-02-28T02:28:30;9.30;;;5.23;;
18505;SDS011;9382;53.242;10.438;2023-02-28T02:31:35;9.27;;;5.50;;
18505;SDS011;9382;53.242;10.438;2023-02-28T02:34:35;12.60;;;5.80;;
18505;SDS011;9382;53.242;10.438;2023-02-28T02:37:16;9.77;;;5.57;;
18505;SDS011;9382;53.242;10.438;2023-02-28T02:39:58;8.17;;;5.13;;
18505;SDS011;9382;53.242;10.438;2023-02-28T02:42:31;6.13;;;5.20;;
18505;SDS011;9382;53.242;10.438;2023-02-28T02:45:03;8.30;;;5.53;;
18505;SDS011;9382;53.242;10.438;2023-02-28T02:47:35;9.67;;;5.67;;
18505;SDS011;9382;53.242;10.438;2023-02-28T02:50:06;10.50;;;5.67;;
18505;SDS011;9382;53.242;10.438;2023-02-28T02:52:38;9.80;;;5.93;;
18505;SDS011;9382;53.242;10.438;2023-02-28T02:55:08;12.53;;;5.60;;
18505;SDS011;9382;53.242;10.438;2023-02-28T02:57:38;9.77;;;5.30;;
18505;SDS011;9382;53.242;10.438;2023-02-28T03:00:11;9.10;;;5.70;;
18505;SDS011;9382;53.242;10.438;2023-02-28T03:02:40;8.40;;;5.50;;
18505;SDS011;9382;53.242;10.438;2023-02-28T03:05:12;14.23;;;6.17;;
18505;SDS011;9382;53.242;10.438;2023-02-28T03:07:44;8.47;;;5.03;;
18505;SDS011;9382;53.242;10.438;2023-02-28T03:10:27;8.70;;;5.30;;
18505;SDS011;9382;53.242;10.438;2023-02-28T03:13:00;7.97;;;5.23;;
18505;SDS011;9382;53.242;10.438;2023-02-28T03:15:40;14.27;;;5.83;;
18505;SDS011;9382;53.242;10.438;2023-02-28T03:18:17;10.70;;;5.40;;
18505;SDS011;9382;53.242;10.438;2023-02-28T03:20:58;11.50;;;5.53;;
18505;SDS011;9382;53.242;10.438;2023-02-28T03:23:34;8.47;;;5.37;;
18505;SDS011;9382;53.242;10.438;2023-02-28T03:26:11;9.40;;;5.83;;
18505;SDS011;9382;53.242;10.438;2023-02-28T03:28:43;7.93;;;5.27;;
18505;SDS011;9382;53.242;10.438;2023-02-28T03:31:16;10.83;;;5.27;;
18505;SDS011;9382;53.242;10.438;2023-02-28T03:33:46;8.63;;;5.50;;
18505;SDS011;9382;53.242;10.438;2023-02-28T03:36:21;8.80;;;5.43;;
18505;SDS011;9382;53.242;10.438;2023-02-28T03:38:53;7.43;;;5.10;;
18505;SDS011;9382;53.242;10.438;2023-02-28T03:41:22;7.23;;;5.03;;
18505;SDS011;9382;53.242;10.438;2023-02-28T03:43:53;9.00;;;5.20;;
18505;SDS011;9382;53.242;10.438;2023-02-28T03:46:23;6.60;;;5.13;;
18505;SDS011;9382;53.242;10.438;2023-02-28T03:48:53;10.20;;;5.53;;
18505;SDS011;9382;53.242;10.438;2023-02-28T03:51:27;10.30;;;5.37;;
18505;SDS011;9382;53.242;10.438;2023-02-28T03:53:56;8.37;;;5.10;;
18505;SDS011;9382;53.242;10.438;2023-02-28T03:56:30;6.13;;;5.20;;
18505;SDS011;9382;53.242;10.438;2023-02-28T03:59:00;9.53;;;5.20;;
18505;SDS011;9382;53.242;10.438;2023-02-28T04:01:33;6.77;;;4.90;;
18505;SDS011;9382;53.242;10.438;2023-02-28T04:04:03;9.07;;;4.90;;
18505;SDS011;9382;53.242;10.438;2023-02-28T04:06:32;9.30;;;5.43;;
18505;SDS011;9382;53.242;10.438;2023-02-28T04:09:00;16.07;;;5.90;;
18505;SDS011;9382;53.242;10.438;2023-02-28T04:11:29;7.70;;;5.27;;
18505;SDS011;9382;53.242;10.438;2023-02-28T04:13:59;7.90;;;5.10;;
18505;SDS011;9382;53.242;10.438;2023-02-28T04:16:27;8.10;;;5.30;;
18505;SDS011;9382;53.242;10.438;2023-02-28T04:18:54;8.10;;;5.30;;
18505;SDS011;9382;53.242;10.438;2023-02-28T04:21:26;9.93;;;4.73;;
18505;SDS011;9382;53.242;10.438;2023-02-28T04:23:55;7.77;;;5.37;;
18505;SDS011;9382;53.242;10.438;2023-02-28T04:26:25;8.37;;;5.40;;
18505;SDS011;9382;53.242;10.438;2023-02-28T04:28:54;8.20;;;5.20;;
18505;SDS011;9382;53.242;10.438;2023-02-28T04:31:21;7.93;;;5.33;;
18505;SDS011;9382;53.242;10.438;2023-02-28T04:33:48;9.47;;;5.43;;
18505;SDS011;9382;53.242;10.438;2023-02-28T04:36:14;9.20;;;5.03;;
18505;SDS011;9382;53.242;10.438;2023-02-28T04:38:43;9.60;;;5.43;;
18505;SDS011;9382;53.242;10.438;2023-02-28T04:41:11;11.90;;;5.40;;
18505;SDS011;9382;53.242;10.438;2023-02-28T04:43:38;11.47;;;5.30;;
18505;SDS011;9382;53.242;10.438;2023-02-28T04:46:05;8.17;;;5.40;;
18505;SDS011;9382;53.242;10.438;2023-02-28T04:48:33;10.17;;;5.60;;
18505;SDS011;9382;53.242;10.438;2023-02-28T04:51:01;10.00;;;5.53;;
18505;SDS011;9382;53.242;10.438;2023-02-28T04:53:28;11.30;;;5.23;;
18505;SDS011;9382;53.242;10.438;2023-02-28T04:55:55;6.83;;;4.83;;
18505;SDS011;9382;53.242;10.438;2023-02-28T04:58:24;8.50;;;5.17;;
18505;SDS011;9382;53.242;10.438;2023-02-28T05:00:51;7.57;;;5.03;;
18505;SDS011;9382;53.242;10.438;2023-02-28T05:03:18;10.30;;;5.20;;
18505;SDS011;9382;53.242;10.438;2023-02-28T05:05:45;8.60;;;5.10;;
18505;SDS011;9382;53.242;10.438;2023-02-28T05:08:12;13.17;;;5.77;;
18505;SDS011;9382;53.242;10.438;2023-02-28T05:10:39;11.07;;;5.10;;
18505;SDS011;9382;53.242;10.438;2023-02-28T05:13:06;8.63;;;5.13;;
18505;SDS011;9382;53.242;10.438;2023-02-28T05:15:34;9.57;;;5.63;;
18505;SDS011;9382;53.242;10.438;2023-02-28T05:18:01;7.73;;;5.00;;
18505;SDS011;9382;53.242;10.438;2023-02-28T05:20:28;9.57;;;5.30;;
18505;SDS011;9382;53.242;10.438;2023-02-28T05:22:54;6.57;;;5.10;;
18505;SDS011;9382;53.242;10.438;2023-02-28T05:25:23;8.63;;;5.63;;
18505;SDS011;9382;53.242;10.438;2023-02-28T05:27:49;5.97;;;4.90;;
18505;SDS011;9382;53.242;10.438;2023-02-28T05:30:16;7.97;;;5.20;;
18505;SDS011;9382;53.242;10.438;2023-02-28T05:32:48;7.70;;;5.20;;
18505;SDS011;9382;53.242;10.438;2023-02-28T05:35:16;8.17;;;5.27;;
18505;SDS011;9382;53.242;10.438;2023-02-28T05:37:43;8.70;;;4.90;;
18505;SDS011;9382;53.242;10.438;2023-02-28T05:40:10;8.67;;;5.37;;
18505;SDS011;9382;53.242;10.438;2023-02-28T05:42:37;11.07;;;5.53;;
18505;SDS011;9382;53.242;10.438;2023-02-28T05:45:05;9.43;;;5.30;;
18505;SDS011;9382;53.242;10.438;2023-02-28T05:47:33;8.23;;;5.63;;
18505;SDS011;9382;53.242;10.438;2023-02-28T05:50:01;9.30;;;5.27;;
18505;SDS011;9382;53.242;10.438;2023-02-28T05:52:28;7.87;;;5.50;;
18505;SDS011;9382;53.242;10.438;2023-02-28T05:54:55;8.77;;;6.07;;
18505;SDS011;9382;53.242;10.438;2023-02-28T05:57:22;7.60;;;5.23;;
18505;SDS011;9382;53.242;10.438;2023-02-28T05:59:49;9.37;;;5.27;;
18505;SDS011;9382;53.242;10.438;2023-02-28T06:02:16;7.13;;;5.43;;
18505;SDS011;9382;53.242;10.438;2023-02-28T06:04:43;11.10;;;5.90;;
18505;SDS011;9382;53.242;10.438;2023-02-28T06:07:12;8.97;;;5.43;;
18505;SDS011;9382;53.242;10.438;2023-02-28T06:09:38;8.07;;;5.43;;
18505;SDS011;9382;53.242;10.438;2023-02-28T06:12:05;8.47;;;5.10;;
18505;SDS011;9382;53.242;10.438;2023-02-28T06:14:34;10.97;;;5.70;;
18505;SDS011;9382;53.242;10.438;2023-02-28T06:17:02;11.10;;;5.77;;
18505;SDS011;9382;53.242;10.438;2023-02-28T06:19:29;9.37;;;5.90;;
18505;SDS011;9382;53.242;10.438;2023-02-28T06:21:56;8.07;;;5.10;;
18505;SDS011;9382;53.242;10.438;2023-02-28T06:24:26;7.97;;;5.53;;
18505;SDS011;9382;53.242;10.438;2023-02-28T06:26:53;7.83;;;6.07;;
18505;SDS011;9382;53.242;10.438;2023-02-28T06:29:20;9.57;;;6.00;;
18505;SDS011;9382;53.242;10.438;2023-02-28T06:31:47;7.87;;;5.77;;
18505;SDS011;9382;53.242;10.438;2023-02-28T06:34:14;8.93;;;5.57;;
18505;SDS011;9382;53.242;10.438;2023-02-28T06:36:41;11.07;;;5.90;;
18505;SDS011;9382;53.242;10.438;2023-02-28T06:39:08;11.10;;;5.73;;
18505;SDS011;9382;53.242;10.438;2023-02-28T06:41:37;9.67;;;5.97;;
18505;SDS011;9382;53.242;10.438;2023-02-28T06:44:05;8.43;;;5.60;;
18505;SDS011;9382;53.242;10.438;2023-02-28T06:46:31;8.37;;;6.17;;
18505;SDS011;9382;53.242;10.438;2023-02-28T06:48:58;10.43;;;6.10;;
18505;SDS011;9382;53.242;10.438;2023-02-28T06:51:25;14.07;;;7.90;;
18505;SDS011;9382;53.242;10.438;2023-02-28T06:53:52;16.50;;;7.60;;
18505;SDS011;9382;53.242;10.438;2023-02-28T06:56:19;12.87;;;7.03;;
18505;SDS011;9382;53.242;10.438;2023-02-28T06:58:48;16.40;;;7.20;;
18505;SDS011;9382;53.242;10.438;2023-02-28T07:01:17;17.37;;;7.60;;
18505;SDS011;9382;53.242;10.438;2023-02-28T07:03:44;14.43;;;8.07;;
18505;SDS011;9382;53.242;10.438;2023-02-28T07:06:11;17.20;;;9.37;;
18505;SDS011;9382;53.242;10.438;2023-02-28T07:08:38;16.30;;;9.17;;
18505;SDS011;9382;53.242;10.438;2023-02-28T07:11:06;13.77;;;8.43;;
18505;SDS011;9382;53.242;10.438;2023-02-28T07:13:32;11.57;;;7.67;;
18505;SDS011;9382;53.242;10.438;2023-02-28T07:16:01;16.43;;;8.50;;
18505;SDS011;9382;53.242;10.438;2023-02-28T07:18:31;17.13;;;7.27;;
18505;SDS011;9382;53.242;10.438;2023-02-28T07:21:01;12.43;;;7.60;;
18505;SDS011;9382;53.242;10.438;2023-02-28T07:23:28;13.50;;;7.93;;
18505;SDS011;9382;53.242;10.438;2023-02-28T07:25:55;14.23;;;7.30;;
18505;SDS011;9382;53.242;10.438;2023-02-28T07:28:22;15.27;;;7.80;;
18505;SDS011;9382;53.242;10.438;2023-02-28T07:30:48;13.90;;;6.93;;
18505;SDS011;9382;53.242;10.438;2023-02-28T07:33:16;11.20;;;7.33;;
18505;SDS011;9382;53.242;10.438;2023-02-28T07:35:43;13.43;;;7.00;;
18505;SDS011;9382;53.242;10.438;2023-02-28T07:38:10;11.97;;;6.87;;
18505;SDS011;9382;53.242;10.438;2023-02-28T07:40:38;13.10;;;6.70;;
18505;SDS011;9382;53.242;10.438;2023-02-28T07:43:05;12.97;;;7.63;;
18505;SDS011;9382;53.242;10.438;2023-02-28T07:45:32;12.83;;;7.10;;
18505;SDS011;9382;53.242;10.438;2023-02-28T07:48:00;12.00;;;7.73;;
18505;SDS011;9382;53.242;10.438;2023-02-28T07:50:28;11.10;;;7.13;;
18505;SDS011;9382;53.242;10.438;2023-02-28T07:52:56;13.10;;;6.83;;
18505;SDS011;9382;53.242;10.438;2023-02-28T07:55:23;9.20;;;7.00;;
18505;SDS011;9382;53.242;10.438;2023-02-28T07:57:50;11.83;;;7.53;;
18505;SDS011;9382;53.242;10.438;2023-02-28T08:00:17;10.27;;;7.40;;
18505;SDS011;9382;53.242;10.438;2023-02-28T08:02:44;12.03;;;7.43;;
18505;SDS011;9382;53.242;10.438;2023-02-28T08:05:10;10.17;;;7.20;;
18505;SDS011;9382;53.242;10.438;2023-02-28T08:07:39;10.53;;;7.00;;
18505;SDS011;9382;53.242;10.438;2023-02-28T08:10:06;8.53;;;6.57;;
18505;SDS011;9382;53.242;10.438;2023-02-28T08:12:34;9.13;;;6.20;;
18505;SDS011;9382;53.242;10.438;2023-02-28T08:15:02;14.80;;;7.07;;
18505;SDS011;9382;53.242;10.438;2023-02-28T08:17:29;10.67;;;6.70;;
18505;SDS011;9382;53.242;10.438;2023-02-28T08:19:55;10.97;;;7.13;;
18505;SDS011;9382;53.242;10.438;2023-02-28T08:22:22;13.27;;;8.43;;
18505;SDS011;9382;53.242;10.438;2023-02-28T08:24:50;12.13;;;7.80;;
18505;SDS011;9382;53.242;10.438;2023-02-28T08:27:17;12.93;;;7.63;;
18505;SDS011;9382;53.242;10.438;2023-02-28T08:29:44;13.63;;;8.37;;
18505;SDS011;9382;53.242;10.438;2023-02-28T08:32:10;14.43;;;7.80;;
18505;SDS011;9382;53.242;10.438;2023-02-28T08:34:38;10.53;;;7.50;;
18505;SDS011;9382;53.242;10.438;2023-02-28T08:37:05;11.07;;;7.47;;
18505;SDS011;9382;53.242;10.438;2023-02-28T08:39:33;11.57;;;8.50;;
18505;SDS011;9382;53.242;10.438;2023-02-28T08:42:02;10.17;;;7.03;;
18505;SDS011;9382;53.242;10.438;2023-02-28T08:44:30;9.53;;;6.50;;
18505;SDS011;9382;53.242;10.438;2023-02-28T08:46:57;11.07;;;7.00;;
18505;SDS011;9382;53.242;10.438;2023-02-28T08:49:23;8.53;;;6.10;;
18505;SDS011;9382;53.242;10.438;2023-02-28T08:51:50;9.63;;;7.03;;
18505;SDS011;9382;53.242;10.438;2023-02-28T08:54:17;12.23;;;6.67;;
18505;SDS011;9382;53.242;10.438;2023-02-28T08:56:44;10.93;;;6.90;;
18505;SDS011;9382;53.242;10.438;2023-02-28T08:59:12;9.23;;;5.87;;
18505;SDS011;9382;53.242;10.438;2023-02-28T09:01:39;7.17;;;5.23;;
18505;SDS011;9382;53.242;10.438;2023-02-28T09:04:08;7.63;;;5.07;;
18505;SDS011;9382;53.242;10.438;2023-02-28T09:06:36;11.53;;;6.00;;
18505;SDS011;9382;53.242;10.438;2023-02-28T09:09:03;8.10;;;5.10;;
18505;SDS011;9382;53.242;10.438;2023-02-28T09:11:32;5.97;;;5.10;;
18505;SDS011;9382;53.242;10.438;2023-02-28T09:13:59;7.00;;;5.50;;
18505;SDS011;9382;53.242;10.438;2023-02-28T09:16:29;7.03;;;5.50;;
18505;SDS011;9382;53.242;10.438;2023-02-28T09:18:57;7.47;;;5.10;;
18505;SDS011;9382;53.242;10.438;2023-02-28T09:21:24;6.60;;;4.97;;
18505;SDS011;9382;53.242;10.438;2023-02-28T09:23:50;6.33;;;4.80;;
18505;SDS011;9382;53.242;10.438;2023-02-28T09:26:18;7.03;;;4.73;;
18505;SDS011;9382;53.242;10.438;2023-02-28T09:28:47;6.87;;;4.50;;
18505;SDS011;9382;53.242;10.438;2023-02-28T09:31:14;5.33;;;4.20;;
18505;SDS011;9382;53.242;10.438;2023-02-28T09:33:47;6.00;;;4.13;;
18505;SDS011;9382;53.242;10.438;2023-02-28T09:36:14;5.80;;;4.13;;
18505;SDS011;9382;53.242;10.438;2023-02-28T09:38:40;8.77;;;4.67;;
18505;SDS011;9382;53.242;10.438;2023-02-28T09:41:10;6.03;;;3.97;;
18505;SDS011;9382;53.242;10.438;2023-02-28T09:43:40;6.33;;;4.57;;
18505;SDS011;9382;53.242;10.438;2023-02-28T09:46:13;6.40;;;3.60;;
18505;SDS011;9382;53.242;10.438;2023-02-28T09:48:48;5.13;;;3.70;;
18505;SDS011;9382;53.242;10.438;2023-02-28T09:51:23;5.87;;;3.53;;
18505;SDS011;9382;53.242;10.438;2023-02-28T09:53:56;3.33;;;2.90;;
18505;SDS011;9382;53.242;10.438;2023-02-28T09:56:24;4.93;;;3.30;;
18505;SDS011;9382;53.242;10.438;2023-02-28T09:58:57;5.23;;;2.80;;
18505;SDS011;9382;53.242;10.438;2023-02-28T10:01:28;4.33;;;2.23;;
18505;SDS011;9382;53.242;10.438;2023-02-28T10:04:05;3.50;;;2.20;;
18505;SDS011;9382;53.242;10.438;2023-02-28T10:06:39;2.73;;;1.93;;
18505;SDS011;9382;53.242;10.438;2023-02-28T10:09:11;2.53;;;1.90;;
18505;SDS011;9382;53.242;10.438;2023-02-28T10:11:43;2.90;;;2.60;;
18505;SDS011;9382;53.242;10.438;2023-02-28T10:14:12;2.87;;;2.40;;
18505;SDS011;9382;53.242;10.438;2023-02-28T10:16:42;5.37;;;3.10;;
18505;SDS011;9382;53.242;10.438;2023-02-28T10:19:19;3.47;;;2.70;;
18505;SDS011;9382;53.242;10.438;2023-02-28T10:21:50;4.37;;;2.90;;
18505;SDS011;9382;53.242;10.438;2023-02-28T10:24:23;4.47;;;2.70;;
18505;SDS011;9382;53.242;10.438;2023-02-28T10:26:56;2.97;;;2.67;;
18505;SDS011;9382;53.242;10.438;2023-02-28T10:29:26;5.13;;;2.80;;
18505;SDS011;9382;53.242;10.438;2023-02-28T10:31:54;2.30;;;2.20;;
18505;SDS011;9382;53.242;10.438;2023-02-28T10:34:23;4.90;;;2.47;;
18505;SDS011;9382;53.242;10.438;2023-02-28T10:36:50;4.13;;;2.70;;
18505;SDS011;9382;53.242;10.438;2023-02-28T10:39:37;3.40;;;2.93;;
18505;SDS011;9382;53.242;10.438;2023-02-28T10:42:19;3.77;;;2.70;;
18505;SDS011;9382;53.242;10.438;2023-02-28T10:44:53;3.50;;;3.00;;
18505;SDS011;9382;53.242;10.438;2023-02-28T10:47:32;4.00;;;3.07;;
18505;SDS011;9382;53.242;10.438;2023-02-28T10:50:03;4.97;;;3.40;;
18505;SDS011;9382;53.242;10.438;2023-02-28T10:52:33;5.37;;;3.80;;
18505;SDS011;9382;53.242;10.438;2023-02-28T10:55:18;4.80;;;3.43;;
18505;SDS011;9382;53.242;10.438;2023-02-28T10:57:47;6.10;;;3.63;;
18505;SDS011;9382;53.242;10.438;2023-02-28T11:00:16;6.30;;;3.33;;
18505;SDS011;9382;53.242;10.438;2023-02-28T11:02:46;4.23;;;3.30;;
18505;SDS011;9382;53.242;10.438;2023-02-28T11:05:25;3.77;;;3.10;;
18505;SDS011;9382;53.242;10.438;2023-02-28T11:07:53;2.23;;;2.03;;
18505;SDS011;9382;53.242;10.438;2023-02-28T11:10:23;2.00;;;1.80;;
18505;SDS011;9382;53.242;10.438;2023-02-28T11:12:54;2.17;;;1.50;;
18505;SDS011;9382;53.242;10.438;2023-02-28T11:15:23;2.03;;;1.50;;
18505;SDS011;9382;53.242;10.438;2023-02-28T11:17:54;1.93;;;1.70;;
18505;SDS011;9382;53.242;10.438;2023-02-28T11:20:25;2.57;;;1.40;;
18505;SDS011;9382;53.242;10.438;2023-02-28T11:22:53;2.40;;;1.60;;
18505;SDS011;9382;53.242;10.438;2023-02-28T11:25:22;1.50;;;1.40;;
18505;SDS011;9382;53.242;10.438;2023-02-28T11:27:52;1.60;;;1.50;;
18505;SDS011;9382;53.242;10.438;2023-02-28T11:30:28;2.50;;;1.77;;
18505;SDS011;9382;53.242;10.438;2023-02-28T11:32:58;2.10;;;1.50;;
18505;SDS011;9382;53.242;10.438;2023-02-28T11:35:28;1.57;;;1.47;;
18505;SDS011;9382;53.242;10.438;2023-02-28T11:37:59;1.53;;;1.43;;
18505;SDS011;9382;53.242;10.438;2023-02-28T11:40:30;1.77;;;1.60;;
18505;SDS011;9382;53.242;10.438;2023-02-28T11:43:08;1.43;;;1.33;;
18505;SDS011;9382;53.242;10.438;2023-02-28T11:45:50;1.40;;;1.30;;
18505;SDS011;9382;53.242;10.438;2023-02-28T11:48:27;1.73;;;1.40;;
18505;SDS011;9382;53.242;10.438;2023-02-28T11:51:03;2.17;;;1.33;;
18505;SDS011;9382;53.242;10.438;2023-02-28T11:53:42;2.30;;;1.80;;
18505;SDS011;9382;53.242;10.438;2023-02-28T11:56:26;1.50;;;1.40;;
18505;SDS011;9382;53.242;10.438;2023-02-28T11:59:04;1.63;;;1.50;;
18505;SDS011;9382;53.242;10.438;2023-02-28T12:02:06;2.53;;;1.40;;
18505;SDS011;9382;53.242;10.438;2023-02-28T12:07:50;2.53;;;1.43;;
18505;SDS011;9382;53.242;10.438;2023-02-28T12:10:27;2.80;;;1.30;;
18505;SDS011;9382;53.242;10.438;2023-02-28T12:13:02;5.30;;;1.70;;
18505;SDS011;9382;53.242;10.438;2023-02-28T12:15:39;1.50;;;1.40;;
18505;SDS011;9382;53.242;10.438;2023-02-28T12:18:33;1.93;;;1.70;;
18505;SDS011;9382;53.242;10.438;2023-02-28T12:21:15;1.93;;;1.37;;
18505;SDS011;9382;53.242;10.438;2023-02-28T12:24:00;3.53;;;1.50;;
18505;SDS011;9382;53.242;10.438;2023-02-28T12:26:43;4.43;;;1.77;;
18505;SDS011;9382;53.242;10.438;2023-02-28T12:29:14;2.30;;;1.50;;
18505;SDS011;9382;53.242;10.438;2023-02-28T12:31:45;2.40;;;1.67;;
18505;SDS011;9382;53.242;10.438;2023-02-28T12:34:16;1.60;;;1.33;;
18505;SDS011;9382;53.242;10.438;2023-02-28T12:36:46;1.93;;;1.30;;
18505;SDS011;9382;53.242;10.438;2023-02-28T12:39:16;1.37;;;1.23;;
18505;SDS011;9382;53.242;10.438;2023-02-28T12:41:47;2.53;;;1.20;;
18505;SDS011;9382;53.242;10.438;2023-02-28T12:44:19;1.20;;;1.10;;
18505;SDS011;9382;53.242;10.438;2023-02-28T12:46:51;2.13;;;1.17;;
18505;SDS011;9382;53.242;10.438;2023-02-28T12:49:21;2.40;;;1.30;;
18505;SDS011;9382;53.242;10.438;2023-02-28T12:51:52;2.33;;;1.40;;
18505;SDS011;9382;53.242;10.438;2023-02-28T12:54:21;1.57;;;1.47;;
18505;SDS011;9382;53.242;10.438;2023-02-28T12:56:53;1.80;;;1.50;;
18505;SDS011;9382;53.242;10.438;2023-02-28T12:59:31;2.50;;;1.40;;
18505;SDS011;9382;53.242;10.438;2023-02-28T13:02:16;1.60;;;1.50;;
18505;SDS011;9382;53.242;10.438;2023-02-28T13:05:26;1.93;;;1.73;;
18505;SDS011;9382;53.242;10.438;2023-02-28T13:08:11;2.93;;;1.80;;
18505;SDS011;9382;53.242;10.438;2023-02-28T13:10:54;1.93;;;1.70;;
18505;SDS011;9382;53.242;10.438;2023-02-28T13:13:22;2.00;;;1.80;;
18505;SDS011;9382;53.242;10.438;2023-02-28T13:16:01;2.57;;;1.67;;
18505;SDS011;9382;53.242;10.438;2023-02-28T13:18:31;4.00;;;1.97;;
18505;SDS011;9382;53.242;10.438;2023-02-28T13:21:03;6.83;;;2.00;;
18505;SDS011;9382;53.242;10.438;2023-02-28T13:29:34;2.27;;;2.10;;
18505;SDS011;9382;53.242;10.438;2023-02-28T13:32:28;2.63;;;1.90;;
18505;SDS011;9382;53.242;10.438;2023-02-28T13:38:15;2.80;;;1.83;;
18505;SDS011;9382;53.242;10.438;2023-02-28T13:40:49;3.53;;;2.10;;
18505;SDS011;9382;53.242;10.438;2023-02-28T13:43:16;1.70;;;1.60;;
18505;SDS011;9382;53.242;10.438;2023-02-28T13:48:38;3.57;;;1.50;;
18505;SDS011;9382;53.242;10.438;2023-02-28T13:54:06;3.37;;;1.33;;
18505;SDS011;9382;53.242;10.438;2023-02-28T13:56:45;2.03;;;1.40;;
18505;SDS011;9382;53.242;10.438;2023-02-28T13:59:20;2.50;;;1.43;;
18505;SDS011;9382;53.242;10.438;2023-02-28T14:02:01;1.50;;;1.40;;
18505;SDS011;9382;53.242;10.438;2023-02-28T14:04:48;2.97;;;1.20;;
18505;SDS011;9382;53.242;10.438;2023-02-28T14:07:27;1.40;;;1.30;;
18505;SDS011;9382;53.242;10.438;2023-02-28T14:09:59;2.17;;;1.40;;
18505;SDS011;9382;53.242;10.438;2023-02-28T14:15:38;1.87;;;1.60;;
18505;SDS011;9382;53.242;10.438;2023-02-28T14:18:13;1.47;;;1.37;;
18505;SDS011;9382;53.242;10.438;2023-02-28T14:20:47;1.50;;;1.40;;
18505;SDS011;9382;53.242;10.438;2023-02-28T14:23:20;1.73;;;1.50;;
18505;SDS011;9382;53.242;10.438;2023-02-28T14:26:03;2.50;;;1.53;;
18505;SDS011;9382;53.242;10.438;2023-02-28T14:28:43;1.50;;;1.40;;
18505;SDS011;9382;53.242;10.438;2023-02-28T14:31:23;1.80;;;1.40;;
18505;SDS011;9382;53.242;10.438;2023-02-28T14:34:03;2.30;;;1.40;;
18505;SDS011;9382;53.242;10.438;2023-02-28T14:36:46;1.43;;;1.30;;
18505;SDS011;9382;53.242;10.438;2023-02-28T14:39:14;1.67;;;1.40;;
18505;SDS011;9382;53.242;10.438;2023-02-28T14:41:43;1.30;;;1.20;;
18505;SDS011;9382;53.242;10.438;2023-02-28T14:44:15;3.60;;;1.60;;
18505;SDS011;9382;53.242;10.438;2023-02-28T14:46:45;2.53;;;1.50;;
18505;SDS011;9382;53.242;10.438;2023-02-28T14:49:17;3.70;;;1.50;;
18505;SDS011;9382;53.242;10.438;2023-02-28T14:51:45;1.83;;;1.60;;
18505;SDS011;9382;53.242;10.438;2023-02-28T14:54:14;2.40;;;1.40;;
18505;SDS011;9382;53.242;10.438;2023-02-28T14:56:42;1.77;;;1.33;;
18505;SDS011;9382;53.242;10.438;2023-02-28T14:59:26;3.53;;;1.90;;
18505;SDS011;9382;53.242;10.438;2023-02-28T15:04:51;5.93;;;2.23;;
18505;SDS011;9382;53.242;10.438;2023-02-28T15:07:20;2.97;;;2.70;;
18505;SDS011;9382;53.242;10.438;2023-02-28T15:10:09;1.60;;;1.50;;
18505;SDS011;9382;53.242;10.438;2023-02-28T15:12:39;1.97;;;1.80;;
18505;SDS011;9382;53.242;10.438;2023-02-28T15:15:14;2.03;;;1.60;;
18505;SDS011;9382;53.242;10.438;2023-02-28T15:17:42;1.50;;;1.40;;
18505;SDS011;9382;53.242;10.438;2023-02-28T15:20:12;3.13;;;1.40;;
18505;SDS011;9382;53.242;10.438;2023-02-28T15:22:41;3.80;;;1.80;;
18505;SDS011;9382;53.242;10.438;2023-02-28T15:25:09;1.73;;;1.60;;
18505;SDS011;9382;53.242;10.438;2023-02-28T15:27:40;2.60;;;1.40;;
18505;SDS011;9382;53.242;10.438;2023-02-28T15:30:14;1.53;;;1.40;;